logo
Search for airport 
image banner adimage banner adimage banner ad
image banner ad

EDBOR - Bork

Located in , Germany

ICAO - , IATA -

Data provided by Airmate  

General information

Coordinates: N52°14'2" E12°50'50"
Elevation is 193 feet MSL.
 
View others Airports in Brandenburg

Operational data

Special qualification required
Current time UTC:
Current local time:
Weather at : EDDB - Berlin Brandenburg ( 47 km )
METAR: EDDB 250420Z AUTO 06003KT CAVOK 16/13 Q1019 NOSIG
TAF: TAF EDDB 242300Z 2500/2524 06004KT CAVOK BECMG 2507/2510 06009KT
View NOTAMs / SUP AIP / TFR affecting this airport [VIEW]
Communications frequencies: [VIEW]

Runways:

RWY identifierQFULength (ft)Width (ft)SurfaceLDA (ft)
17170°2690164GRASS
35350°2690164GRASS

Airport contact information

Address: Germany

Satellite view of EDBOR